createdAt,value
2019-01-17T00:00:01.184Z,5.26
2019-01-17T00:05:01.485Z,5.33
2019-01-17T00:10:01.827Z,5.33
2019-01-17T00:15:02.058Z,5.43
2019-01-17T00:20:01.333Z,5.53
2019-01-17T00:25:01.595Z,5.61
2019-01-17T00:30:01.852Z,5.57
2019-01-17T00:35:01.171Z,5.6
2019-01-17T00:40:01.441Z,5.6
2019-01-17T00:45:01.736Z,5.6
2019-01-17T00:50:02.032Z,5.53
2019-01-17T00:55:01.298Z,5.53
2019-01-17T01:00:01.566Z,5.48
2019-01-17T01:05:01.872Z,5.47
2019-01-17T01:10:01.191Z,5.41
2019-01-17T01:15:01.468Z,5.31
2019-01-17T01:20:01.755Z,5.2
2019-01-17T01:25:02.013Z,5.15
2019-01-17T01:30:01.297Z,5.17
2019-01-17T01:35:01.662Z,5.12
2019-01-17T01:40:01.931Z,5.13
2019-01-17T01:45:01.261Z,5.16
2019-01-17T01:50:01.719Z,5.13
2019-01-17T01:55:02.009Z,5.17
2019-01-17T02:00:01.442Z,5.17
2019-01-17T02:05:01.970Z,5.17
2019-01-17T02:10:01.261Z,5.2
2019-01-17T02:15:02.031Z,5.15
2019-01-17T02:20:01.286Z,5.12
2019-01-17T02:25:01.627Z,5.04
2019-01-17T02:30:01.903Z,4.96
2019-01-17T02:35:01.204Z,4.89
2019-01-17T02:40:01.489Z,4.88
2019-01-17T02:45:01.863Z,4.87
2019-01-17T02:50:01.186Z,4.86
2019-01-17T02:55:01.467Z,4.88
2019-01-17T03:00:01.774Z,4.92
2019-01-17T03:05:01.127Z,4.93
2019-01-17T03:10:01.411Z,4.92
2019-01-17T03:15:01.693Z,4.88
2019-01-17T03:20:02.035Z,4.87
2019-01-17T03:25:01.323Z,4.86
2019-01-17T03:30:02.059Z,4.89
2019-01-17T03:35:01.393Z,4.91
2019-01-17T03:40:01.267Z,4.9
2019-01-17T03:45:01.579Z,4.87
2019-01-17T03:50:01.917Z,4.89
2019-01-17T03:55:01.226Z,4.86
2019-01-17T04:00:01.568Z,4.92
2019-01-17T04:05:01.920Z,4.88
2019-01-17T04:10:01.214Z,4.84
2019-01-17T04:15:01.590Z,4.79
2019-01-17T04:20:01.911Z,4.74
2019-01-17T04:25:01.191Z,4.71
2019-01-17T04:30:01.451Z,4.68
2019-01-17T04:35:01.765Z,4.67
2019-01-17T04:40:02.089Z,4.64
2019-01-17T04:45:01.333Z,4.63
2019-01-17T04:50:01.635Z,4.62
2019-01-17T04:55:05.167Z,4.6
2019-01-17T05:00:01.954Z,4.57
2019-01-17T05:05:01.233Z,4.59
2019-01-17T05:10:01.487Z,4.57
2019-01-17T05:15:01.810Z,4.58
2019-01-17T05:20:02.064Z,4.59
2019-01-17T05:25:01.315Z,4.56
2019-01-17T05:30:01.687Z,4.54
2019-01-17T05:35:02.113Z,4.54
2019-01-17T05:40:01.652Z,4.49
2019-01-17T05:45:01.950Z,4.51
2019-01-17T05:50:01.239Z,4.49
2019-01-17T05:55:01.561Z,4.49
2019-01-17T06:00:01.846Z,4.45
2019-01-17T06:05:01.173Z,4.44
2019-01-17T06:10:01.464Z,4.36
2019-01-17T06:15:01.809Z,4.38
2019-01-17T06:20:01.122Z,4.39
2019-01-17T06:25:01.402Z,4.37
2019-01-17T06:30:01.661Z,4.39
2019-01-17T06:35:01.978Z,4.43
2019-01-17T06:40:01.244Z,4.5
2019-01-17T06:45:01.610Z,4.54
2019-01-17T06:50:01.929Z,4.54
2019-01-17T06:55:01.256Z,4.49
2019-01-17T07:00:01.547Z,4.5
2019-01-17T07:05:01.866Z,4.48
2019-01-17T07:10:01.170Z,4.44
2019-01-17T07:15:01.496Z,4.33
2019-01-17T07:20:01.814Z,4.23
2019-01-17T07:25:01.123Z,4.03
2019-01-17T07:30:01.413Z,3.92
2019-01-17T07:35:01.730Z,3.74
2019-01-17T07:40:02.016Z,3.63
2019-01-17T07:45:01.270Z,3.56
2019-01-17T07:50:01.570Z,3.52
2019-01-17T07:55:01.871Z,3.63
2019-01-17T08:00:01.158Z,3.7
2019-01-17T08:05:01.534Z,3.76
2019-01-17T08:10:01.875Z,3.79
2019-01-17T08:15:01.143Z,3.76
2019-01-17T08:20:01.431Z,3.93
2019-01-17T08:25:01.703Z,4.07
2019-01-17T08:30:02.004Z,4.13
2019-01-17T08:35:01.278Z,4.28
2019-01-17T08:40:01.583Z,4.26
2019-01-17T08:45:01.867Z,4.23
2019-01-17T08:50:01.162Z,4.41
2019-01-17T08:55:01.445Z,4.51
2019-01-17T09:00:01.756Z,4.61
2019-01-17T09:05:02.050Z,4.75
2019-01-17T09:10:01.318Z,4.9
2019-01-17T09:15:01.612Z,4.96
2019-01-17T09:20:01.899Z,5.09
2019-01-17T09:25:01.204Z,5.16
2019-01-17T09:30:01.518Z,5.18
2019-01-17T09:35:01.864Z,5.19
2019-01-17T09:40:01.176Z,5.31
2019-01-17T09:45:01.515Z,5.47
2019-01-17T09:50:01.798Z,5.51
2019-01-17T09:55:02.067Z,5.68
2019-01-17T10:00:01.319Z,5.78
2019-01-17T10:05:01.651Z,5.89
2019-01-17T10:10:01.927Z,5.95
2019-01-17T10:15:01.183Z,6.23
2019-01-17T10:20:01.567Z,6.48
2019-01-17T10:25:01.118Z,6.52
2019-01-17T10:30:01.470Z,6.61
2019-01-17T10:35:01.804Z,6.68
2019-01-17T10:40:01.122Z,6.55
2019-01-17T10:45:01.463Z,6.54
2019-01-17T10:50:01.738Z,6.49
2019-01-17T10:55:02.017Z,6.5
2019-01-17T11:00:01.269Z,6.51
2019-01-17T11:05:01.612Z,6.43
2019-01-17T11:10:01.872Z,6.39
2019-01-17T11:15:01.146Z,6.4
2019-01-17T11:20:01.461Z,6.46
2019-01-17T11:25:02.344Z,6.51
2019-01-17T11:30:01.728Z,6.49
2019-01-17T11:35:02.047Z,6.49
2019-01-17T11:40:01.302Z,6.5
2019-01-17T11:45:01.625Z,6.46
2019-01-17T11:50:01.942Z,6.48
2019-01-17T11:55:01.211Z,5.98
2019-01-17T12:00:01.522Z,5.4
2019-01-17T12:05:01.880Z,5.33
2019-01-17T12:10:01.143Z,5.45
2019-01-17T12:15:01.446Z,5.48
2019-01-17T12:20:01.849Z,5.38
2019-01-17T12:25:01.179Z,5.35
2019-01-17T12:30:01.490Z,5.26
2019-01-17T12:35:01.836Z,5.23
2019-01-17T12:40:01.150Z,5.12
2019-01-17T12:45:01.472Z,4.57
2019-01-17T12:50:01.787Z,3.95
2019-01-17T12:55:01.116Z,4.1
2019-01-17T13:00:07.542Z,3.74
2019-01-17T13:05:01.266Z,3.59
2019-01-17T13:10:01.563Z,3.5
2019-01-17T13:15:01.883Z,3.42
2019-01-17T13:20:01.181Z,3.41
2019-01-17T13:25:01.496Z,3.42
2019-01-17T13:30:01.810Z,3.45
2019-01-17T13:35:01.183Z,3.52
2019-01-17T13:40:01.526Z,3.47
2019-01-17T13:45:01.834Z,3.59
2019-01-17T13:50:01.140Z,3.65
2019-01-17T13:55:01.558Z,3.7
2019-01-17T14:00:01.260Z,3.72
2019-01-17T14:05:01.588Z,3.69
2019-01-17T14:10:01.872Z,3.64
2019-01-17T14:15:01.153Z,3.62
2019-01-17T14:20:01.272Z,3.59
2019-01-17T14:25:01.574Z,3.63
2019-01-17T14:30:01.832Z,3.65
2019-01-17T14:35:01.139Z,3.7
2019-01-17T14:40:01.467Z,3.76
2019-01-17T14:45:01.772Z,3.73
2019-01-17T14:50:02.052Z,3.65
2019-01-17T14:55:01.314Z,3.56
2019-01-17T15:00:01.624Z,3.35
2019-01-17T15:05:01.925Z,3.1
2019-01-17T15:10:01.246Z,3.19
2019-01-17T15:15:01.540Z,2.84
2019-01-17T15:20:01.859Z,2.93
2019-01-17T15:25:01.143Z,2.69
2019-01-17T15:30:01.482Z,2.67
2019-01-17T15:35:01.783Z,2.69
2019-01-17T15:40:01.199Z,2.61
2019-01-17T15:45:01.503Z,2.26
2019-01-17T15:50:01.818Z,1.98
2019-01-17T15:55:02.094Z,1.73
2019-01-17T16:00:01.354Z,1.58
2019-01-17T16:05:01.641Z,1.5
2019-01-17T16:10:01.898Z,1.41
2019-01-17T16:15:01.768Z,1.45
2019-01-17T16:20:02.066Z,1.38
2019-01-17T16:25:01.375Z,1.46
2019-01-17T16:30:01.724Z,1.43
2019-01-17T16:35:02.021Z,1.47
2019-01-17T16:40:01.339Z,1.38
2019-01-17T16:45:01.636Z,1.46
2019-01-17T16:50:01.947Z,1.48
2019-01-17T16:55:01.223Z,1.52
2019-01-17T17:00:01.525Z,1.61
2019-01-17T17:05:01.885Z,1.63
2019-01-17T17:10:01.171Z,1.53
2019-01-17T17:15:01.446Z,1.45
2019-01-17T17:20:01.735Z,1.39
2019-01-17T17:25:02.013Z,1.31
2019-01-17T17:30:01.287Z,1.31
2019-01-17T17:35:01.571Z,1.34
2019-01-17T17:40:01.874Z,1.31
2019-01-17T17:45:01.156Z,1.36
2019-01-17T17:50:01.471Z,1.31
2019-01-17T17:55:01.765Z,1.21
2019-01-17T18:00:02.027Z,1.24
2019-01-17T18:05:01.332Z,1.21
2019-01-17T18:10:01.613Z,1.2
2019-01-17T18:15:01.914Z,1.34
2019-01-17T18:20:01.236Z,1.2
2019-01-17T18:25:01.542Z,1.21
2019-01-17T18:30:01.840Z,1.1
2019-01-17T18:35:01.142Z,1.05
2019-01-17T18:40:01.448Z,1.13
2019-01-17T18:45:01.744Z,1.14
2019-01-17T18:50:02.027Z,1.19
2019-01-17T18:55:01.280Z,1.25
2019-01-17T19:00:01.640Z,1.26
2019-01-17T19:05:01.937Z,1.34
2019-01-17T19:10:01.198Z,1.39
2019-01-17T19:15:01.592Z,1.47
2019-01-17T19:20:01.964Z,1.61
2019-01-17T19:25:01.232Z,1.68
2019-01-17T19:30:01.535Z,1.7
2019-01-17T19:35:01.865Z,1.65
2019-01-17T19:40:01.169Z,1.53
2019-01-17T19:45:01.477Z,1.43
2019-01-17T19:50:01.772Z,1.43
2019-01-17T19:55:02.110Z,1.45
2019-01-17T20:00:01.364Z,1.67
2019-01-17T20:05:01.704Z,1.57
2019-01-17T20:10:01.982Z,1.53
2019-01-17T20:15:01.241Z,1.53
2019-01-17T20:20:01.545Z,1.54
2019-01-17T20:25:01.882Z,1.55
2019-01-17T20:30:01.173Z,1.51
2019-01-17T20:35:01.529Z,1.53
2019-01-17T20:40:01.828Z,1.51
2019-01-17T20:45:01.110Z,1.5
2019-01-17T20:50:01.395Z,1.49
2019-01-17T20:55:01.703Z,1.5
2019-01-17T21:00:01.986Z,1.5
2019-01-17T21:05:01.305Z,1.45
2019-01-17T21:10:01.601Z,1.4
2019-01-17T21:15:02.080Z,1.45
2019-01-17T21:20:01.360Z,1.42
2019-01-17T21:25:01.638Z,1.43
2019-01-17T21:30:01.937Z,1.45
2019-01-17T21:35:01.237Z,1.45
2019-01-17T21:40:01.542Z,1.45
2019-01-17T21:45:01.916Z,1.46
2019-01-17T21:50:01.206Z,1.48
2019-01-17T21:55:01.565Z,1.45
2019-01-17T22:00:01.882Z,1.36
2019-01-17T22:05:01.216Z,1.23
2019-01-17T22:10:01.913Z,1.2
2019-01-17T22:15:01.368Z,1.23
2019-01-17T22:20:01.680Z,1.22
2019-01-17T22:25:02.780Z,1.21
2019-01-17T22:30:02.084Z,1.2
2019-01-17T22:35:01.399Z,1.22
2019-01-17T22:40:01.694Z,1.25
2019-01-17T22:45:01.967Z,1.27
2019-01-17T22:50:01.279Z,1.34
2019-01-17T22:55:01.563Z,1.39
2019-01-17T23:00:01.845Z,1.39
2019-01-17T23:05:01.143Z,1.35
2019-01-17T23:10:01.467Z,1.28
2019-01-17T23:15:01.773Z,1.21
2019-01-17T23:20:02.051Z,1.08
2019-01-17T23:25:01.280Z,1.02
2019-01-17T23:30:01.545Z,0.96
2019-01-17T23:35:01.818Z,0.91
2019-01-17T23:40:01.149Z,0.92
2019-01-17T23:45:01.474Z,0.98
2019-01-17T23:50:01.828Z,1.12
2019-01-17T23:55:01.134Z,1.18
